Архив погоды в Бологом

Метеограмма Бологое
Вторник, 25 Июня
Время местн. Темп Ветер Видим Явления Облачность нижн/средн/верх Атм. давл. Влжн Точка росы ВНГО R Сост. почвы Tg s
Напр Скр Прв ур.ст ур.м изм
06:00 +11.8° штиль 0 - 10 км - переменная облачность 755 772 +0.8 77% +7.9° - - - - -
03:00 +10.1° штиль 0 - 10 км - ясно 755 772 +0.5 86% +7.9° более 2.5 км - - - -
00:00 +13.4° З,С-З 1 - 10 км - облачно с прояснениями 754 771 +1.2 74% +8.8° 1 км - - - -
Понедельник, 24 Июня
Время местн. Темп Ветер Видим Явления Облачность нижн/средн/верх Атм. давл. Влжн Точка росы ВНГО R Сост. почвы Tg s
Напр Скр Прв ур.ст ур.м изм
21:00 +17.6° С-З 1 - 20 км - переменная облачность 753 770 +0.7 50% +7.1° 1 км 0 - - -
18:00 +21.5° С-З 3 - 20 км - переменная облачность 752 769 +0.2 33% +4.4° 1 км - - - -
15:00 +21.5° С-З 2 - 20 км - переменная облачность 752 768 -0.5 41% +7.7° 1 км - - - -
12:00 +18.3° С 2 - 20 км - переменная облачность 753 769 +0.5 44% +6° 1 км - - - -
09:00 +17.9° штиль 0 - 20 км - облачно с прояснениями 752 769 +0.5 53% +8.2° 1 км 0 Влажная (без луж) - -
06:00 +11.9° штиль 0 - 10 км - переменная облачность 752 769 +0.4 82% +8.9° более 2.5 км - - - -
03:00 +10.4° З,С-З 1 - 4 км дымка ясно 751 768 +0.8 89% +8.6° более 2.5 км - - - -
00:00 +10.5° штиль 0 - 4 км дымка ясно 751 768 +0.6 91% +9.1° более 2.5 км - - - -
Воскресенье, 23 Июня
Время местн. Темп Ветер Видим Явления Облачность нижн/средн/верх Атм. давл. Влжн Точка росы ВНГО R Сост. почвы Tg s
Напр Скр Прв ур.ст ур.м изм
21:00 +16.9° штиль 0 - 20 км - ясно 750 767 -0.2 59% +8.9° более 2.5 км 0 - - -
18:00 +21.7° З,С-З 2 - 20 км - переменная облачность 750 767 -0.5 38% +6.8° 1 км - - - -
15:00 +20.1° З 2 - 20 км - преимущественно облачно 751 767 -0.1 44% +7.5° 1 км - - - -
12:00 +20.3° З,С-З 2 - 20 км - облачно с прояснениями 751 767 -0.1 43% +7.3° 1 км - - - -
09:00 +17.7° З 1 - 20 км - переменная облачность 751 767 +0.6 58% +9.3° более 2.5 км 0 Сырая (есть малые или большие лужи) - -
06:00 +13° З 1 - 10 км - ясно 750 767 +1.2 79% +9.5° более 2.5 км - - - -
03:00 +10.1° штиль 0 - 4 км дымка ясно 749 766 +1.1 93% +9° более 2.5 км - - - -
00:00 +15.4° З,С-З 1 - 10 км - ясно 748 764 +1.8 76% +11.2° более 2.5 км - - - -
Суббота, 22 Июня
Время местн. Темп Ветер Видим Явления Облачность нижн/средн/верх Атм. давл. Влжн Точка росы ВНГО R Сост. почвы Tg s
Напр Скр Прв ур.ст ур.м изм
21:00 +20.3° З 1 - 10 км небо без изменений {гроза, ливневые осадки} переменная облачность 746 762 +0.8 69% +14.4° 1 км 29 - - -
18:00 +22.8° З 2 - 10 км небо без изменений {гроза, ливневые осадки} переменная облачность 745 761 +0.5 71% +17.2° 1 км - - - -
15:00 +19.5° штиль 0 - 4 км гроза без осадков {ливневые осадки} облачно 745 761 0 93% +18.3° 1 км - - - -
12:00 +22.9° З 2 - 10 км - преимущественно облачно 745 761 +0.7 72% +17.5° 1 км - - - -
09:00 +20.4° З,Ю-З 2 - 10 км - облачно 744 760 +0.2 82% +17.2° 600 м 0 Сухая (без трещин) - -
06:00 +18.7° З,Ю-З 1 - 10 км - преимущественно облачно 744 760 +0.6 86% +16.4° 1 км - - - -
03:00 +18.2° Ю,Ю-З 2 - 10 км - переменная облачность 743 760 -0.1 89% +16.4° 1 км - - - -